Time;durP1;ratioP1;P1;durP2;ratioP2;P2;SDS_P1;SDS_P2;PMS_P1;PMS_P2;Temp;Humidity;BMP_temperature;BMP_pressure;BME280_temperature;BME280_humidity;BME280_pressure;Samples;Min_cycle;Max_cycle;Signal;HPM_P1;HPM_P2
2022/11/19 00:01:18;;;;;;;11.10;5.45;;;;;;;-1.66;67.88;100890.38;5064177;28;20063;-68
2022/11/19 00:03:45;;;;;;;13.23;6.32;;;;;;;-1.66;67.83;100896.41;5065450;28;20040;-68
2022/11/19 00:06:15;;;;;;;12.48;5.68;;;;;;;-1.93;69.00;100892.97;5065096;28;20497;-67
2022/11/19 00:08:42;;;;;;;11.43;5.68;;;;;;;-1.85;69.21;100894.69;5081907;28;20444;-67
2022/11/19 00:11:10;;;;;;;13.57;6.47;;;;;;;-1.94;69.78;100902.38;5063412;27;20049;-68
2022/11/19 00:13:36;;;;;;;12.93;6.60;;;;;;;-2.11;70.76;100902.38;5065003;28;20048;-68
2022/11/19 00:16:08;;;;;;;12.93;6.75;;;;;;;-2.13;70.55;100896.34;5065132;28;20040;-68
2022/11/19 00:18:34;;;;;;;10.48;6.82;;;;;;;-2.13;71.08;100896.34;5074982;28;20054;-69
2022/11/19 00:21:06;;;;;;;13.07;6.63;;;;;;;-1.98;70.63;100893.81;5077913;28;20470;-68
2022/11/19 00:23:35;;;;;;;12.15;5.72;;;;;;;-2.01;70.69;100901.50;5074643;28;20051;-68
2022/11/19 00:26:06;;;;;;;15.98;7.50;;;;;;;-2.13;70.79;100906.63;5065442;28;20059;-68
2022/11/19 00:28:33;;;;;;;16.07;7.07;;;;;;;-2.17;70.84;100896.31;5058601;28;20045;-69
2022/11/19 00:31:04;;;;;;;14.48;6.55;;;;;;;-2.07;71.30;100888.63;5064720;28;20294;-69
2022/11/19 00:33:31;;;;;;;13.82;7.00;;;;;;;-1.85;70.50;100893.84;5064296;28;20049;-68
2022/11/19 00:35:58;;;;;;;12.20;6.65;;;;;;;-1.98;70.45;100890.38;5064497;28;20044;-69
2022/11/19 00:38:25;;;;;;;11.77;6.43;;;;;;;-2.18;70.12;100887.75;5064034;28;20045;-69
2022/11/19 00:40:53;;;;;;;12.77;6.80;;;;;;;-2.08;69.47;100897.22;5055896;28;20048;-69
2022/11/19 00:46:04;;;;;;;15.43;7.60;;;;;;;-2.01;69.24;100898.09;5045389;28;20698;-67
2022/11/19 00:48:30;;;;;;;15.18;6.95;;;;;;;-1.94;69.03;100904.94;5048165;28;20057;-66
2022/11/19 00:50:57;;;;;;;18.35;7.90;;;;;;;-2.11;69.27;100902.38;5037171;28;20067;-67
2022/11/19 00:53:23;;;;;;;14.80;7.03;;;;;;;-2.20;69.31;100899.75;5046859;28;20044;-68
2022/11/19 00:55:50;;;;;;;29.63;7.82;;;;;;;-2.24;70.30;100908.31;5048051;28;20056;-68
2022/11/19 00:58:18;;;;;;;13.85;6.75;;;;;;;-2.12;70.02;100918.63;5038243;28;20045;-67
2022/11/19 01:00:45;;;;;;;18.30;7.43;;;;;;;-2.08;69.24;100904.06;5047247;28;20074;-67
2022/11/19 01:03:11;;;;;;;14.75;7.57;;;;;;;-2.29;68.88;100914.28;5048559;28;20404;-67
2022/11/19 01:05:38;;;;;;;12.82;6.53;;;;;;;-2.27;68.82;100916.00;5037708;28;20140;-67
2022/11/19 01:08:05;;;;;;;15.25;7.78;;;;;;;-2.24;69.47;100921.16;5046587;28;20059;-67
2022/11/19 01:10:33;;;;;;;14.75;7.18;;;;;;;-2.11;68.74;100914.34;5047509;28;20045;-67
2022/11/19 01:15:47;;;;;;;13.82;7.32;;;;;;;-2.30;69.49;100921.13;5046318;28;20183;-67
2022/11/19 01:18:13;;;;;;;16.45;7.05;;;;;;;-2.42;69.68;100926.22;5038601;28;20416;-67
2022/11/19 01:20:40;;;;;;;17.48;7.55;;;;;;;-2.22;69.06;100913.47;5046996;28;20433;-67
2022/11/19 01:23:06;;;;;;;16.65;7.63;;;;;;;-2.44;69.75;100922.81;5046938;28;20450;-67
2022/11/19 01:25:33;;;;;;;12.40;7.10;;;;;;;-2.35;69.71;100909.97;5037927;28;20051;-67
2022/11/19 01:27:59;;;;;;;15.45;8.35;;;;;;;-2.21;69.34;100910.88;5044034;28;20457;-67
2022/11/19 01:30:26;;;;;;;14.10;7.10;;;;;;;-2.21;68.99;100913.44;5030767;28;20075;-67
2022/11/19 01:32:54;;;;;;;14.20;8.07;;;;;;;-2.24;69.04;100910.88;5022415;28;20439;-67
2022/11/19 01:35:20;;;;;;;11.05;6.07;;;;;;;-2.43;69.56;100915.94;5040207;28;20045;-68
2022/11/19 01:37:46;;;;;;;15.10;7.20;;;;;;;-2.23;68.70;100912.59;5056560;28;20052;-67
2022/11/19 01:40:14;;;;;;;21.10;7.57;;;;;;;-2.25;69.26;100906.56;5066580;28;20055;-67
2022/11/19 01:42:50;;;;;;;16.67;8.35;;;;;;;-2.37;69.48;100913.41;5058054;28;20071;-67
2022/11/19 01:45:27;;;;;;;18.00;7.68;;;;;;;-2.15;68.95;100913.47;5050822;28;20051;-67
2022/11/19 01:47:58;;;;;;;14.63;7.78;;;;;;;-2.10;68.69;100916.03;5050921;28;20102;-67
2022/11/19 01:50:26;;;;;;;15.43;7.78;;;;;;;-2.20;69.18;100915.16;5050388;28;20052;-68
2022/11/19 01:52:52;;;;;;;14.63;7.80;;;;;;;-2.07;68.71;100922.03;5041144;28;20465;-68
2022/11/19 01:55:20;;;;;;;16.00;7.90;;;;;;;-2.38;69.86;100920.25;5051705;28;20750;-67
2022/11/19 01:57:53;;;;;;;15.48;8.18;;;;;;;-2.21;69.38;100931.41;5051046;28;20063;-68
2022/11/19 02:00:21;;;;;;;14.70;8.30;;;;;;;-2.37;70.66;100933.94;5041016;28;20040;-67
2022/11/19 02:02:47;;;;;;;14.45;7.45;;;;;;;-2.23;70.16;100933.16;5050637;28;20040;-67
2022/11/19 02:05:15;;;;;;;15.57;7.15;;;;;;;-2.08;69.23;100929.75;5050775;28;20044;-67
2022/11/19 02:07:45;;;;;;;13.82;7.88;;;;;;;-2.32;70.25;100929.66;5041278;28;20040;-67
2022/11/19 02:10:12;;;;;;;15.55;7.43;;;;;;;-2.22;69.91;100924.59;5049698;28;20045;-67
2022/11/19 02:12:47;;;;;;;15.63;8.00;;;;;;;-2.04;69.17;100924.63;5051739;28;20373;-67
2022/11/19 02:15:23;;;;;;;15.75;8.23;;;;;;;-2.08;69.22;100922.91;5050526;28;20048;-67
2022/11/19 02:18:16;;;;;;;18.58;7.60;;;;;;;-2.31;70.50;100927.13;5050691;28;20053;-67
2022/11/19 02:20:45;;;;;;;;;;;;;;;-2.19;70.52;100932.31;5050507;28;20261;-67
2022/11/19 02:23:53;;;;;;;16.73;7.85;;;;;;;-2.39;70.03;100933.94;5046760;28;19957;-67
2022/11/19 02:27:04;;;;;;;15.02;7.22;;;;;;;-2.34;69.76;100919.41;5034104;28;20052;-69
2022/11/19 02:30:01;;;;;;;15.07;7.18;;;;;;;-2.31;69.55;100932.25;5026134;27;20408;-68
2022/11/19 02:32:32;;;;;;;14.18;7.15;;;;;;;-2.25;68.92;100927.13;5012139;28;20121;-67
2022/11/19 02:35:06;;;;;;;15.35;7.03;;;;;;;-2.19;68.37;100922.03;5007569;28;20049;-68
2022/11/19 02:37:41;;;;;;;16.75;7.30;;;;;;;-2.30;69.33;100926.28;5030554;28;20048;-68
2022/11/19 02:40:15;;;;;;;16.23;7.50;;;;;;;-2.29;69.69;100930.53;5037757;28;20124;-68
2022/11/19 02:42:50;;;;;;;14.57;7.20;;;;;;;-2.31;70.17;100937.38;5031352;28;20037;-69
2022/11/19 02:45:22;;;;;;;14.82;7.32;;;;;;;-2.46;70.80;100933.06;5020811;28;20056;-68
2022/11/19 02:47:53;;;;;;;17.02;7.60;;;;;;;-2.56;71.12;100935.59;5031126;28;20044;-67
2022/11/19 02:50:23;;;;;;;14.40;6.82;;;;;;;-2.55;71.37;100934.75;5035230;28;20456;-67
2022/11/19 02:52:51;;;;;;;17.08;7.45;;;;;;;-2.55;71.47;100929.59;5021447;28;20040;-67
2022/11/19 02:55:19;;;;;;;17.70;8.35;;;;;;;-2.54;71.30;100928.72;5029947;28;20052;-67
2022/11/19 02:57:50;;;;;;;14.80;6.97;;;;;;;-2.33;70.51;100945.94;5030468;28;20056;-68
2022/11/19 03:05:57;;;;;;;17.40;7.50;;;;;;;-3.18;74.21;100960.88;5049442;28;20060;-67
2022/11/19 03:08:24;;;;;;;16.10;8.45;;;;;;;-3.19;74.70;100954.88;5039856;28;20063;-67
2022/11/19 03:10:59;;;;;;;14.45;7.28;;;;;;;-3.03;74.05;100960.97;5051135;28;20056;-67
2022/11/19 03:19:31;;;;;;;;;;;;;;;-2.82;75.10;100971.38;5024733;28;20121;-67
2022/11/19 03:22:02;;;;;;;11.25;6.85;;;;;;;-2.92;74.41;100967.03;5057640;28;20368;-67
2022/11/19 03:24:33;;;;;;;13.68;6.88;;;;;;;-2.85;73.84;100973.06;5055211;28;20094;-67
2022/11/19 03:27:04;;;;;;;16.25;7.70;;;;;;;-2.63;72.87;100968.06;5034191;28;20042;-67
2022/11/19 03:29:34;;;;;;;15.85;7.13;;;;;;;-2.43;71.90;100975.00;5043581;28;20033;-67
2022/11/19 03:32:07;;;;;;;13.30;6.88;;;;;;;-2.31;70.73;100978.47;5052287;28;20048;-67
2022/11/19 03:34:37;;;;;;;17.40;7.78;;;;;;;-2.31;70.22;100983.63;5051785;28;20421;-69
2022/11/19 03:37:07;;;;;;;14.65;7.43;;;;;;;-2.29;70.34;100976.75;5052909;28;20048;-67
2022/11/19 03:39:36;;;;;;;13.32;7.18;;;;;;;-2.55;71.43;100988.66;5050784;28;20045;-67
2022/11/19 03:42:08;;;;;;;16.27;7.70;;;;;;;-2.55;72.10;100980.94;5034099;28;20059;-67
2022/11/19 03:44:40;;;;;;;13.63;6.35;;;;;;;-2.37;71.79;100996.44;5042297;28;20045;-67
2022/11/19 03:47:12;;;;;;;13.93;7.47;;;;;;;-2.62;72.13;100997.13;5041935;28;20049;-67
2022/11/19 03:49:42;;;;;;;16.40;7.47;;;;;;;-2.62;71.07;100997.13;5041128;28;20061;-66
2022/11/19 03:52:12;;;;;;;13.70;7.30;;;;;;;-2.57;69.86;101005.72;5054597;28;20053;-67
2022/11/19 03:54:40;;;;;;;15.68;6.75;;;;;;;-2.68;70.36;101003.09;5031610;28;20052;-67
2022/11/19 03:57:09;;;;;;;14.88;6.85;;;;;;;-2.76;70.21;100998.75;5040602;28;20409;-67
2022/11/19 03:59:35;;;;;;;13.98;6.88;;;;;;;-2.75;69.88;101001.34;5039045;28;20060;-67
2022/11/19 04:02:04;;;;;;;14.48;6.85;;;;;;;-2.84;70.04;100997.84;5028747;28;20057;-67
2022/11/19 04:04:37;;;;;;;12.50;6.60;;;;;;;-2.83;70.50;100997.00;5040069;28;20052;-67
2022/11/19 04:07:06;;;;;;;16.80;8.52;;;;;;;-3.07;71.72;100993.41;5051659;28;20045;-67
2022/11/19 04:09:33;;;;;;;13.45;6.55;;;;;;;-3.13;72.76;100989.94;5027777;28;20041;-66
2022/11/19 04:11:59;;;;;;;14.63;6.88;;;;;;;-3.11;73.00;100986.56;5038316;28;20044;-67
2022/11/19 04:14:26;;;;;;;17.77;6.78;;;;;;;-3.17;72.69;100991.63;5037345;28;20431;-67
2022/11/19 04:16:53;;;;;;;13.70;7.38;;;;;;;-3.19;72.07;100993.34;5027324;28;20040;-67
2022/11/19 04:19:19;;;;;;;18.60;7.93;;;;;;;-3.18;72.23;100987.34;5036470;28;20048;-66
2022/11/19 04:21:48;;;;;;;12.25;6.85;;;;;;;-3.12;72.36;100974.59;5049167;28;20515;-67
2022/11/19 04:24:14;;;;;;;12.05;6.65;;;;;;;-3.02;71.88;100971.22;5046604;28;20052;-67
2022/11/19 04:26:41;;;;;;;15.77;7.75;;;;;;;-2.78;70.91;100979.94;5051533;28;20041;-67
2022/11/19 04:29:07;;;;;;;14.65;7.25;;;;;;;-2.92;71.16;100977.31;5050408;28;20044;-67
2022/11/19 04:31:34;;;;;;;15.75;6.55;;;;;;;-3.08;70.97;100971.19;5043995;28;20048;-67
2022/11/19 04:34:00;;;;;;;13.82;6.88;;;;;;;-3.59;72.03;100974.19;5052355;28;20393;-67
2022/11/19 04:36:27;;;;;;;12.50;6.60;;;;;;;-3.34;73.92;100975.28;5053602;28;20044;-67
2022/11/19 04:38:54;;;;;;;11.90;6.80;;;;;;;-3.18;72.99;100978.81;5042684;28;20049;-67
2022/11/19 04:41:21;;;;;;;13.07;6.97;;;;;;;-2.93;72.12;100974.72;5052347;28;20049;-67
2022/11/19 04:43:47;;;;;;;14.45;7.93;;;;;;;-2.82;70.86;100978.22;5053710;28;20044;-67
2022/11/19 04:46:14;;;;;;;13.77;7.55;;;;;;;-2.81;70.41;100980.81;5043488;28;20048;-67
2022/11/19 04:48:40;;;;;;;17.63;7.32;;;;;;;-2.82;70.53;100967.94;5052090;28;20048;-66
2022/11/19 04:51:07;;;;;;;18.88;8.38;;;;;;;-2.74;70.26;100974.00;5052338;28;20044;-68
2022/11/19 04:53:33;;;;;;;18.88;7.85;;;;;;;-2.77;70.04;100972.25;5043358;28;20040;-67
2022/11/19 04:56:01;;;;;;;18.85;8.30;;;;;;;-2.90;70.73;100974.72;5052017;28;20048;-67
2022/11/19 04:58:28;;;;;;;14.13;8.15;;;;;;;-3.21;72.45;100974.50;5051970;28;20045;-67
2022/11/19 05:00:54;;;;;;;15.25;8.48;;;;;;;-3.18;71.88;100983.94;5042621;28;20516;-67
2022/11/19 05:03:20;;;;;;;14.75;7.22;;;;;;;-3.16;71.49;100984.81;5053937;28;20041;-67
2022/11/19 05:05:47;;;;;;;16.30;7.38;;;;;;;-2.98;70.50;100993.50;5055812;28;20063;-67
2022/11/19 05:08:13;;;;;;;13.82;6.03;;;;;;;-2.95;69.56;100996.06;5045977;28;20056;-67
2022/11/19 05:10:40;;;;;;;12.57;6.57;;;;;;;-3.06;69.33;100995.16;5052367;28;20064;-68
2022/11/19 05:13:07;;;;;;;14.98;7.28;;;;;;;-3.32;70.34;100995.78;5053850;28;20516;-67
2022/11/19 05:15:34;;;;;;;13.32;6.75;;;;;;;-3.42;70.66;100992.28;5044096;28;20055;-67
2022/11/19 05:18:01;;;;;;;14.07;6.70;;;;;;;-3.21;70.87;100995.03;5053900;28;20045;-68
2022/11/19 05:20:27;;;;;;;16.15;7.78;;;;;;;-3.28;71.37;100992.38;5053128;28;20151;-67
2022/11/19 05:22:54;;;;;;;12.32;6.88;;;;;;;-3.24;70.96;101000.13;5042503;28;20041;-68
2022/11/19 05:25:20;;;;;;;14.90;7.63;;;;;;;-3.21;70.37;100997.59;5052616;28;20056;-67
2022/11/19 05:27:47;;;;;;;15.23;7.22;;;;;;;-3.33;72.43;101004.34;5051770;28;20063;-67
2022/11/19 05:30:16;;;;;;;13.85;6.93;;;;;;;-3.24;70.86;101000.13;5042367;28;20045;-67
2022/11/19 05:32:42;;;;;;;16.48;7.00;;;;;;;-3.08;69.90;100994.28;5052519;28;20044;-67
2022/11/19 05:35:09;;;;;;;12.10;7.20;;;;;;;-2.90;69.08;100985.00;5058427;28;20051;-67
2022/11/19 05:37:36;;;;;;;13.80;6.13;;;;;;;-3.10;69.24;100977.16;5049069;28;20610;-68
2022/11/19 05:40:03;;;;;;;16.38;7.53;;;;;;;-3.24;70.04;100989.00;5092551;28;20047;-68
2022/11/19 05:42:30;;;;;;;16.63;8.10;;;;;;;-3.32;70.53;100977.81;5067743;28;20048;-67
2022/11/19 05:44:56;;;;;;;18.17;7.85;;;;;;;-3.40;71.98;100994.88;5067955;28;20451;-67
2022/11/19 05:47:24;;;;;;;13.02;6.82;;;;;;;-3.43;72.03;100977.75;5066487;28;20044;-68
2022/11/19 05:49:51;;;;;;;13.45;6.97;;;;;;;-3.32;70.71;100991.50;5068417;28;20104;-68
2022/11/19 05:52:17;;;;;;;16.40;6.88;;;;;;;-3.31;69.86;100993.25;5066884;28;20059;-68
2022/11/19 05:54:43;;;;;;;11.90;6.45;;;;;;;-3.41;69.80;100995.72;5068578;28;20618;-67
2022/11/19 05:57:10;;;;;;;15.05;7.20;;;;;;;-3.82;72.04;100991.03;5066969;28;20048;-67
2022/11/19 05:59:37;;;;;;;15.43;6.82;;;;;;;-3.88;72.87;100992.69;5065817;28;20052;-67
2022/11/19 06:02:04;;;;;;;15.80;7.63;;;;;;;-3.70;73.03;101001.44;5068988;28;20493;-67
2022/11/19 06:04:32;;;;;;;13.15;6.45;;;;;;;-3.38;71.66;100999.16;5067555;28;20044;-69
2022/11/19 06:06:58;;;;;;;13.73;6.70;;;;;;;-3.40;70.80;100997.44;5066589;28;20049;-69
2022/11/19 06:09:26;;;;;;;12.80;7.07;;;;;;;-4.02;70.51;101003.63;5067057;28;20044;-68
2022/11/19 06:11:52;;;;;;;16.52;7.53;;;;;;;-4.66;75.97;101019.88;5066955;28;20048;-68
2022/11/19 06:14:20;;;;;;;17.77;7.93;;;;;;;-4.82;80.13;101011.94;5063580;28;20650;-68
2022/11/19 06:16:47;;;;;;;21.67;9.98;;;;;;;-5.09;81.74;101017.50;5071527;27;20083;-68
2022/11/19 06:19:14;;;;;;;20.02;8.85;;;;;;;-5.20;83.05;101019.88;5067157;28;20558;-68
2022/11/19 06:21:42;;;;;;;14.98;7.65;;;;;;;-4.87;82.20;101013.56;5082067;28;20040;-68
2022/11/19 06:24:08;;;;;;;20.73;8.38;;;;;;;-4.37;79.60;101022.84;5073571;28;20048;-68
2022/11/19 06:26:35;;;;;;;17.05;7.80;;;;;;;-3.99;76.96;101020.75;5068262;28;20049;-68
2022/11/19 06:29:01;;;;;;;13.02;6.72;;;;;;;-3.60;74.99;101010.91;5064800;28;20044;-68
2022/11/19 06:31:28;;;;;;;13.65;6.80;;;;;;;-3.52;73.24;101022.13;5067008;27;20485;-68
2022/11/19 06:33:55;;;;;;;16.85;7.60;;;;;;;-3.85;72.94;101032.00;5078070;27;20040;-68
2022/11/19 06:36:22;;;;;;;16.45;7.40;;;;;;;-4.17;75.02;101033.31;5082552;28;20065;-68
2022/11/19 06:38:49;;;;;;;18.75;7.90;;;;;;;-4.33;77.17;101042.50;5062614;27;20041;-68
2022/11/19 06:41:16;;;;;;;13.75;6.70;;;;;;;-3.87;76.20;101043.06;5056817;27;20053;-68
2022/11/19 06:43:43;;;;;;;16.13;7.30;;;;;;;-3.45;74.36;101049.53;5039146;28;20067;-68
2022/11/19 06:46:09;;;;;;;18.02;7.68;;;;;;;-3.30;72.83;101048.81;5049361;27;20047;-68
2022/11/19 06:48:36;;;;;;;15.63;7.55;;;;;;;-3.06;71.11;101051.56;5048204;27;20051;-69
2022/11/19 06:51:03;;;;;;;16.42;7.30;;;;;;;-3.21;70.99;101055.69;5049637;27;20051;-69
2022/11/19 06:53:30;;;;;;;17.98;7.55;;;;;;;-3.25;71.22;101046.28;5058890;27;20049;-68
2022/11/19 06:56:00;;;;;;;15.32;6.65;;;;;;;-3.40;71.00;101041.03;5048718;27;20424;-69
2022/11/19 06:58:26;;;;;;;15.68;7.32;;;;;;;-3.50;71.08;101042.63;5039658;28;20044;-68
2022/11/19 07:00:53;;;;;;;14.43;7.35;;;;;;;-3.35;70.82;101035.06;5049535;28;20051;-69
2022/11/19 07:03:20;;;;;;;17.15;6.82;;;;;;;-3.33;70.17;101040.22;5048546;28;20051;-68
2022/11/19 07:05:47;;;;;;;14.70;6.93;;;;;;;-3.30;70.17;101040.25;5048042;28;20519;-68
2022/11/19 07:08:13;;;;;;;17.70;7.82;;;;;;;-3.60;71.13;101040.81;5056982;28;20045;-69
2022/11/19 07:10:40;;;;;;;16.42;7.03;;;;;;;-3.51;71.28;101041.75;5047046;28;20067;-69
2022/11/19 07:13:08;;;;;;;15.38;6.95;;;;;;;-3.36;71.11;101038.47;5039561;28;20504;-69
2022/11/19 07:15:34;;;;;;;18.67;7.45;;;;;;;-3.03;70.60;101041.34;5050329;28;20045;-68
2022/11/19 07:18:01;;;;;;;17.23;7.75;;;;;;;-3.00;70.30;101041.38;5047892;28;20045;-68
2022/11/19 07:20:28;;;;;;;16.35;7.80;;;;;;;-2.87;69.94;101039.75;5038389;28;20731;-68
2022/11/19 07:22:54;;;;;;;18.20;7.63;;;;;;;-2.91;69.86;101044.84;5049103;28;20051;-68
2022/11/19 07:25:20;;;;;;;17.25;7.88;;;;;;;-3.41;71.86;101035.03;5048106;28;20052;-68
2022/11/19 07:27:47;;;;;;;15.82;7.22;;;;;;;-3.34;72.84;101039.38;5039202;27;20515;-69
2022/11/19 07:30:16;;;;;;;15.52;7.50;;;;;;;-3.40;74.08;101044.44;5047700;27;20048;-69
2022/11/19 07:32:43;;;;;;;21.42;9.10;;;;;;;-3.34;74.90;101044.50;5048002;27;20054;-69
2022/11/19 07:35:10;;;;;;;18.08;8.48;;;;;;;-3.48;76.48;101038.38;5042623;27;20044;-69
2022/11/19 07:37:38;;;;;;;22.05;9.80;;;;;;;-3.50;77.91;101034.91;5056449;28;20052;-69
2022/11/19 07:40:05;;;;;;;19.23;8.93;;;;;;;-3.24;77.05;101037.72;5055875;27;20059;-68
2022/11/19 07:42:50;;;;;;;19.17;8.68;;;;;;;-3.04;76.58;101041.34;5037601;28;20049;-68
2022/11/19 07:45:19;;;;;;;26.40;9.40;;;;;;;-2.81;76.16;101041.53;5032018;27;20556;-68
2022/11/19 07:47:46;;;;;;;16.63;7.80;;;;;;;-2.52;75.01;101037.44;5038481;27;20460;-68
2022/11/19 07:50:13;;;;;;;17.98;7.95;;;;;;;-2.25;74.19;101042.69;5047450;28;20439;-68
2022/11/19 07:52:39;;;;;;;20.42;8.52;;;;;;;-2.19;73.71;101041.91;5047128;28;20059;-69
2022/11/19 07:55:07;;;;;;;18.90;8.20;;;;;;;-2.23;73.69;101050.44;5037786;28;20048;-68
2022/11/19 07:57:33;;;;;;;21.33;9.20;;;;;;;-2.27;74.01;101046.13;5055981;28;20096;-68
2022/11/19 08:00:00;;;;;;;21.65;9.77;;;;;;;-2.40;74.70;101045.19;5046457;27;20666;-68
2022/11/19 08:02:28;;;;;;;23.17;9.02;;;;;;;-2.89;76.97;101040.59;5038234;28;20048;-68
2022/11/19 08:04:54;;;;;;;21.27;8.75;;;;;;;-2.85;79.10;101034.66;5052378;28;20043;-68
2022/11/19 08:07:21;;;;;;;24.13;12.20;;;;;;;-2.91;79.62;101039.72;5058799;28;20059;-69
2022/11/19 08:09:47;;;;;;;23.63;11.93;;;;;;;-2.78;80.88;101036.41;5058149;28;20059;-68
2022/11/19 08:12:14;;;;;;;25.67;10.95;;;;;;;-2.48;80.83;101041.75;5068024;28;20044;-68
2022/11/19 08:14:40;;;;;;;26.30;12.52;;;;;;;-1.68;79.14;101036.09;5061249;28;20044;-68
2022/11/19 08:19:52;;;;;;;21.58;10.77;;;;;;;-0.25;73.29;101029.19;5045459;28;20055;-68
2022/11/19 08:22:18;;;;;;;28.33;11.60;;;;;;;0.21;70.98;101033.31;5047855;28;20048;-68
2022/11/19 08:24:45;;;;;;;25.98;10.88;;;;;;;0.64;69.33;101021.00;5037060;28;20075;-68
2022/11/19 08:27:11;;;;;;;23.90;11.73;;;;;;;0.52;70.11;101021.06;5045080;28;20518;-69
2022/11/19 08:29:38;;;;;;;23.13;11.27;;;;;;;0.30;69.54;101027.22;5046556;28;20083;-68
2022/11/19 08:32:05;;;;;;;23.70;11.23;;;;;;;0.03;69.88;101027.38;5036540;27;20079;-68
2022/11/19 08:34:31;;;;;;;20.92;10.73;;;;;;;-0.11;71.05;101030.84;5046764;28;20052;-69
2022/11/19 08:36:59;;;;;;;25.48;11.48;;;;;;;0.86;69.92;101021.69;5057667;27;20094;-69
2022/11/19 08:39:26;;;;;;;25.08;12.90;;;;;;;1.80;66.49;101019.06;5053693;27;20048;-69
2022/11/19 08:44:36;;;;;;;25.45;12.55;;;;;;;3.65;60.85;100998.06;5037698;27;20078;-69
2022/11/19 08:47:03;;;;;;;22.95;12.27;;;;;;;4.36;59.15;101003.53;5047015;27;20050;-70
2022/11/19 08:49:29;;;;;;;20.55;11.43;;;;;;;4.74;60.14;101010.41;5047819;28;20048;-70
2022/11/19 08:51:57;;;;;;;21.02;10.45;;;;;;;5.23;57.60;101010.09;5037277;27;20067;-70
2022/11/19 08:54:25;;;;;;;27.90;15.32;;;;;;;5.41;56.82;101020.00;5047572;27;20090;-70
2022/11/19 08:56:51;;;;;;;20.17;11.18;;;;;;;5.74;56.71;101016.50;5046929;27;20112;-70
2022/11/19 08:59:20;;;;;;;18.15;10.27;;;;;;;6.01;55.31;101006.25;5037557;27;20052;-69
2022/11/19 09:01:47;;;;;;;20.27;10.98;;;;;;;6.55;53.55;101011.56;5046554;27;20139;-69
2022/11/19 09:04:13;;;;;;;20.10;10.55;;;;;;;6.40;52.63;101009.41;5047803;27;20048;-69
2022/11/19 09:06:40;;;;;;;17.17;9.38;;;;;;;6.65;53.14;101011.22;5044848;27;20056;-69
2022/11/19 09:09:06;;;;;;;15.70;9.43;;;;;;;6.63;51.88;101020.00;5046284;28;20048;-68
2022/11/19 09:11:35;;;;;;;15.48;9.65;;;;;;;6.71;53.74;101021.47;5046001;28;20040;-69
2022/11/19 09:14:01;;;;;;;18.27;10.25;;;;;;;7.01;53.27;101026.63;5037445;27;20493;-69
2022/11/19 09:16:28;;;;;;;18.23;10.82;;;;;;;7.59;52.44;101030.72;5046650;27;20044;-69
2022/11/19 09:18:54;;;;;;;22.33;10.82;;;;;;;7.55;52.78;101019.53;5047958;27;20044;-70
2022/11/19 09:21:21;;;;;;;19.20;10.27;;;;;;;7.48;53.52;101030.22;5037571;27;20052;-69
2022/11/19 09:23:47;;;;;;;20.23;10.07;;;;;;;7.89;52.64;101020.94;5045969;27;20052;-69
2022/11/19 09:26:15;;;;;;;15.10;10.20;;;;;;;8.05;49.73;101020.34;5060697;27;20047;-68
2022/11/19 09:28:43;;;;;;;16.83;11.10;;;;;;;7.97;50.44;101027.59;5040237;27;20045;-68
2022/11/19 09:31:11;;;;;;;15.48;10.45;;;;;;;7.87;52.76;101036.66;5040517;27;20049;-68
2022/11/19 09:33:41;;;;;;;14.73;9.50;;;;;;;8.02;50.98;101025.66;5047702;27;20425;-69
2022/11/19 09:36:10;;;;;;;13.05;8.45;;;;;;;8.74;48.81;101034.28;5044832;27;20075;-68
2022/11/19 09:38:38;;;;;;;13.13;8.65;;;;;;;8.88;49.94;101031.09;5047430;27;20044;-69
2022/11/19 09:41:42;;;;;;;13.60;8.80;;;;;;;9.35;45.55;101035.25;5055423;28;20067;-68
2022/11/19 09:44:33;;;;;;;12.63;8.57;;;;;;;9.90;43.94;101035.50;5047249;27;20048;-68
2022/11/19 09:47:07;;;;;;;10.15;7.53;;;;;;;9.86;46.23;101026.09;5046152;28;20504;-68
2022/11/19 09:49:39;;;;;;;11.98;8.50;;;;;;;9.55;47.45;101031.78;5037717;27;20057;-69
2022/11/19 09:52:10;;;;;;;12.97;8.27;;;;;;;9.99;44.12;101035.09;5050582;27;20048;-68
2022/11/19 09:54:44;;;;;;;10.98;7.38;;;;;;;10.38;42.62;101042.97;5060594;28;20290;-68
2022/11/19 09:57:17;;;;;;;11.80;7.35;;;;;;;10.68;41.31;101047.59;5058809;28;20063;-68
2022/11/19 09:59:44;;;;;;;11.77;7.18;;;;;;;10.51;42.26;101039.69;5050407;28;20059;-68
2022/11/19 10:02:16;;;;;;;11.93;7.60;;;;;;;10.54;43.09;101042.16;5041531;28;20055;-68
2022/11/19 10:04:44;;;;;;;11.88;7.40;;;;;;;10.27;44.46;101043.47;5052362;28;20055;-68
2022/11/19 10:07:17;;;;;;;11.40;7.47;;;;;;;10.69;42.43;101046.69;5060039;28;20040;-68
2022/11/19 10:09:57;;;;;;;9.82;6.50;;;;;;;10.40;42.27;101041.97;5040052;28;20052;-68
2022/11/19 10:12:44;;;;;;;11.13;7.35;;;;;;;10.49;43.57;101038.94;5049735;28;20056;-68
2022/11/19 10:15:20;;;;;;;10.25;7.22;;;;;;;10.70;42.39;101034.44;5051057;28;20048;-67
2022/11/19 10:17:58;;;;;;;11.68;7.38;;;;;;;10.79;41.46;101027.91;5050586;28;20047;-66
2022/11/19 10:20:54;;;;;;;10.35;6.40;;;;;;;10.79;40.25;101027.91;5050095;28;20072;-66
2022/11/19 10:23:25;;;;;;;10.82;6.57;;;;;;;11.39;40.50;101021.41;5035940;28;20053;-64
2022/11/19 10:26:00;;;;;;;10.77;6.88;;;;;;;10.77;40.51;101014.84;5049486;28;20492;-63
2022/11/19 10:28:30;;;;;;;10.88;7.18;;;;;;;10.47;42.45;101014.53;5038290;28;20045;-63
2022/11/19 10:31:06;;;;;;;12.32;7.32;;;;;;;10.76;40.41;101013.16;5049503;28;20102;-64
2022/11/19 10:33:37;;;;;;;12.50;7.05;;;;;;;10.51;42.20;101002.13;5049498;28;20496;-64
2022/11/19 10:36:07;;;;;;;14.88;7.22;;;;;;;10.62;41.73;101005.94;5047581;28;20069;-64
2022/11/19 10:38:39;;;;;;;11.90;7.47;;;;;;;9.82;42.33;101006.19;5061139;28;20688;-64
2022/11/19 10:41:13;;;;;;;10.30;7.10;;;;;;;9.36;43.70;101004.69;5039138;28;20500;-64
2022/11/19 10:43:46;;;;;;;9.20;6.72;;;;;;;7.99;47.20;101001.41;5046767;28;20056;-63
2022/11/19 10:46:19;;;;;;;10.68;7.25;;;;;;;8.12;47.44;100992.25;5049727;28;20102;-64
2022/11/19 10:48:49;;;;;;;11.07;6.68;;;;;;;7.47;46.76;100997.22;5049112;28;20050;-64
2022/11/19 10:51:21;;;;;;;12.77;6.65;;;;;;;7.43;49.74;100993.03;5048875;28;20052;-64
2022/11/19 10:53:48;;;;;;;;;;;;;;;6.87;49.29;100984.50;5039224;28;20044;-64
2022/11/19 10:56:18;;;;;;;10.98;6.50;;;;;;;6.71;50.86;100976.31;5048320;28;19920;-64
2022/11/19 10:58:49;;;;;;;8.95;5.55;;;;;;;7.44;47.68;100974.69;5048484;27;20555;-64
2022/11/19 11:01:25;;;;;;;9.18;5.50;;;;;;;7.80;46.67;100968.16;5028173;28;20494;-64
2022/11/19 11:03:58;;;;;;;7.93;4.93;;;;;;;8.11;45.45;100965.28;5044164;28;20056;-64
2022/11/19 11:06:25;;;;;;;9.10;5.35;;;;;;;7.81;46.53;100961.19;5038442;28;20040;-65
2022/11/19 11:08:53;;;;;;;8.77;5.82;;;;;;;7.66;47.50;100962.59;5048183;28;20102;-64
2022/11/19 11:14:50;;;;;;;9.88;6.20;;;;;;;8.10;47.74;100963.56;5049308;28;20051;-64
2022/11/19 11:17:03;;;;;;;10.00;5.90;;;;;;;8.95;43.67;100961.94;5009230;28;20055;-64
2022/11/19 11:19:31;;;;;;;10.13;5.10;;;;;;;9.40;42.72;100952.16;5059818;28;20047;-64
2022/11/19 11:21:58;;;;;;;8.77;5.53;;;;;;;9.67;43.12;100950.09;5037302;28;20056;-64
2022/11/19 11:24:32;;;;;;;9.00;5.18;;;;;;;9.66;42.09;100957.09;5032135;28;20049;-64
2022/11/19 11:27:17;;;;;;;6.30;4.47;;;;;;;8.73;41.01;100962.84;5058055;27;20059;-64
2022/11/19 11:29:44;;;;;;;6.57;4.07;;;;;;;8.49;41.39;100942.91;5067038;27;20697;-64
2022/11/19 11:32:27;;;;;;;9.35;5.20;;;;;;;8.54;42.32;100940.97;5052012;27;20060;-64
2022/11/19 11:34:54;;;;;;;15.15;5.97;;;;;;;8.16;41.66;100942.44;5052207;28;20048;-65
2022/11/19 11:37:21;;;;;;;14.13;6.43;;;;;;;8.10;44.12;100944.41;5055826;28;20055;-65
2022/11/19 11:39:52;;;;;;;7.88;4.25;;;;;;;7.82;42.83;100937.66;5050261;28;20059;-64
2022/11/19 11:42:19;;;;;;;9.98;4.93;;;;;;;8.27;43.21;100939.41;5068957;28;20508;-65
2022/11/19 11:44:51;;;;;;;7.88;3.97;;;;;;;8.14;42.57;100938.19;5047150;28;20049;-65
2022/11/19 11:47:22;;;;;;;11.45;5.05;;;;;;;8.29;42.51;100937.63;5041110;28;20502;-65
2022/11/19 11:49:57;;;;;;;12.57;6.68;;;;;;;8.08;43.38;100939.28;5032555;28;20040;-65
2022/11/19 11:52:33;;;;;;;8.93;5.15;;;;;;;7.86;44.01;100937.53;5023913;28;20517;-65
2022/11/19 11:55:01;;;;;;;10.43;4.65;;;;;;;7.58;44.34;100935.91;5026836;28;20049;-65